createdAt,value
2022-10-26T00:02:19.419Z,10.67
2022-10-26T00:05:06.802Z,9.73
2022-10-26T00:07:53.721Z,14.00
2022-10-26T00:10:40.834Z,9.43
2022-10-26T00:13:27.825Z,13.17
2022-10-26T00:16:26.959Z,10.73
2022-10-26T00:19:14.385Z,11.10
2022-10-26T00:22:02.056Z,12.10
2022-10-26T00:24:49.473Z,12.60
2022-10-26T00:27:36.464Z,9.23
2022-10-26T00:30:23.402Z,9.30
2022-10-26T00:33:13.206Z,10.77
2022-10-26T00:36:00.562Z,11.37
2022-10-26T00:38:52.645Z,12.33
2022-10-26T00:41:39.594Z,12.23
2022-10-26T00:44:48.483Z,10.13
2022-10-26T00:47:45.361Z,9.97
2022-10-26T00:50:41.970Z,10.37
2022-10-26T00:53:29.932Z,13.17
2022-10-26T00:56:17.798Z,12.07
2022-10-26T00:59:07.778Z,10.03
2022-10-26T01:01:54.739Z,10.27
2022-10-26T01:04:41.715Z,11.00
2022-10-26T01:07:28.742Z,8.97
2022-10-26T01:10:15.876Z,15.07
2022-10-26T01:13:03.373Z,11.50
2022-10-26T01:16:02.353Z,11.30
2022-10-26T01:19:16.416Z,12.30
2022-10-26T01:22:11.153Z,11.00
2022-10-26T01:25:13.370Z,13.17
2022-10-26T01:28:07.401Z,9.10
2022-10-26T01:30:56.777Z,12.50
2022-10-26T01:33:51.981Z,9.83
2022-10-26T01:36:43.091Z,12.73
2022-10-26T01:39:33.922Z,13.30
2022-10-26T01:42:23.692Z,9.43
2022-10-26T01:45:13.623Z,11.87
2022-10-26T01:48:03.174Z,10.03
2022-10-26T01:50:53.577Z,8.70
2022-10-26T01:53:47.310Z,11.87
2022-10-26T01:56:40.817Z,8.70
2022-10-26T01:59:42.856Z,13.33
2022-10-26T02:02:59.369Z,9.63
2022-10-26T02:06:02.915Z,10.50
2022-10-26T02:09:06.522Z,13.63
2022-10-26T02:11:54.313Z,9.57
2022-10-26T02:14:55.798Z,10.10
2022-10-26T02:17:52.067Z,10.57
2022-10-26T02:20:48.239Z,10.77
2022-10-26T02:23:39.661Z,10.03
2022-10-26T02:26:32.926Z,11.60
2022-10-26T02:29:20.542Z,13.77
2022-10-26T02:32:08.939Z,12.63
2022-10-26T02:34:58.741Z,12.03
2022-10-26T02:37:48.450Z,10.17
2022-10-26T02:40:37.169Z,12.40
2022-10-26T02:43:26.378Z,14.10
2022-10-26T02:46:17.785Z,8.63
2022-10-26T02:49:05.136Z,9.63
2022-10-26T02:52:11.258Z,15.10
2022-10-26T02:55:19.843Z,10.30
2022-10-26T02:58:14.671Z,16.20
2022-10-26T03:01:01.676Z,12.40
2022-10-26T03:03:48.741Z,14.27
2022-10-26T03:06:35.787Z,10.73
2022-10-26T03:09:25.455Z,10.53
2022-10-26T03:12:12.688Z,12.50
2022-10-26T03:14:59.639Z,15.37
2022-10-26T03:17:46.881Z,12.87
2022-10-26T03:20:34.153Z,12.80
2022-10-26T03:23:21.066Z,12.07
2022-10-26T03:26:08.068Z,12.30
2022-10-26T03:28:55.031Z,11.67
2022-10-26T03:31:42.037Z,11.20
2022-10-26T03:34:29.027Z,11.93
2022-10-26T03:37:15.934Z,15.07
2022-10-26T03:40:02.869Z,12.93
2022-10-26T03:42:50.020Z,14.93
2022-10-26T03:45:37.158Z,14.20
2022-10-26T03:48:24.196Z,12.20
2022-10-26T03:51:11.141Z,12.97
2022-10-26T03:53:58.154Z,13.47
2022-10-26T03:56:45.079Z,15.63
2022-10-26T03:59:31.983Z,10.60
2022-10-26T04:02:18.894Z,14.37
2022-10-26T04:05:06.443Z,11.87
2022-10-26T04:07:58.120Z,13.37
2022-10-26T04:10:47.082Z,12.50
2022-10-26T04:13:34.107Z,11.07
2022-10-26T04:16:21.995Z,12.00
2022-10-26T04:19:09.016Z,11.20
2022-10-26T04:21:55.917Z,9.60
2022-10-26T04:24:42.858Z,10.60
2022-10-26T04:27:29.784Z,11.70
2022-10-26T04:30:16.756Z,12.83
2022-10-26T04:33:05.259Z,14.83
2022-10-26T04:35:52.163Z,13.10
2022-10-26T04:38:39.093Z,16.33
2022-10-26T04:41:26.015Z,13.80
2022-10-26T04:44:12.918Z,10.37
2022-10-26T04:46:59.807Z,12.67
2022-10-26T04:49:46.705Z,15.00
2022-10-26T04:52:34.282Z,14.33
2022-10-26T04:55:21.276Z,13.77
2022-10-26T04:58:08.319Z,13.00
2022-10-26T05:00:55.678Z,13.53
2022-10-26T05:03:42.602Z,15.40
2022-10-26T05:06:30.179Z,15.93
2022-10-26T05:09:17.080Z,15.60
2022-10-26T05:12:04.321Z,15.80
2022-10-26T05:14:51.218Z,17.83
2022-10-26T05:17:38.145Z,17.23
2022-10-26T05:20:30.962Z,17.53
2022-10-26T05:23:18.672Z,15.23
2022-10-26T05:26:05.760Z,13.97
2022-10-26T05:28:53.114Z,13.50
2022-10-26T05:31:40.096Z,12.87
2022-10-26T05:34:26.995Z,14.33
2022-10-26T05:37:13.933Z,14.93
2022-10-26T05:40:00.876Z,13.07
2022-10-26T05:42:48.010Z,14.70
2022-10-26T05:45:35.226Z,13.43
2022-10-26T05:48:22.220Z,13.63
2022-10-26T05:51:09.297Z,15.30
2022-10-26T05:53:56.486Z,13.07
2022-10-26T05:56:43.931Z,13.07
2022-10-26T05:59:31.260Z,12.83
2022-10-26T06:02:41.690Z,10.13
2022-10-26T06:05:33.335Z,12.23
2022-10-26T06:08:22.278Z,12.90
2022-10-26T06:11:09.811Z,14.27
2022-10-26T06:14:00.210Z,14.37
2022-10-26T06:17:23.366Z,10.30
2022-10-26T06:20:30.892Z,11.03
2022-10-26T06:23:47.645Z,13.17
2022-10-26T06:26:43.584Z,10.80
2022-10-26T06:29:36.252Z,13.33
2022-10-26T06:32:24.935Z,10.83
2022-10-26T06:35:40.475Z,9.73
2022-10-26T06:38:28.745Z,7.03
2022-10-26T06:41:18.822Z,7.73
2022-10-26T06:44:06.473Z,8.73
2022-10-26T06:47:15.453Z,9.37
2022-10-26T06:50:25.332Z,9.53
2022-10-26T06:53:27.128Z,13.00
2022-10-26T06:56:14.508Z,12.43
2022-10-26T06:59:16.604Z,19.60
2022-10-26T07:02:06.365Z,10.87
2022-10-26T07:04:53.724Z,8.67
2022-10-26T07:07:43.843Z,6.70
2022-10-26T07:10:31.006Z,6.20
2022-10-26T07:13:18.651Z,7.20
2022-10-26T07:16:05.792Z,7.37
2022-10-26T07:18:52.705Z,8.03
2022-10-26T07:21:39.729Z,7.10
2022-10-26T07:24:27.370Z,6.80
2022-10-26T07:27:14.421Z,6.37
2022-10-26T07:30:01.841Z,7.50
2022-10-26T07:32:49.217Z,6.83
2022-10-26T07:35:36.802Z,7.93
2022-10-26T07:38:23.704Z,9.00
2022-10-26T07:41:10.958Z,10.03
2022-10-26T07:43:58.277Z,9.13
2022-10-26T07:46:45.544Z,14.93
2022-10-26T07:49:32.437Z,11.77
2022-10-26T07:52:19.414Z,11.30
2022-10-26T07:55:06.972Z,10.97
2022-10-26T07:57:55.751Z,11.90
2022-10-26T08:00:43.080Z,11.03
2022-10-26T08:03:30.016Z,13.27
2022-10-26T08:06:17.015Z,11.13
2022-10-26T08:09:04.198Z,22.30
2022-10-26T08:11:51.102Z,22.63
2022-10-26T08:14:38.016Z,18.23
2022-10-26T08:17:24.909Z,23.20
2022-10-26T08:20:11.993Z,15.47
2022-10-26T08:23:00.042Z,15.93
2022-10-26T08:25:47.014Z,16.57
2022-10-26T08:28:34.351Z,15.93
2022-10-26T08:31:21.283Z,18.77
2022-10-26T08:34:08.375Z,20.07
2022-10-26T08:36:55.305Z,15.53
2022-10-26T08:39:42.206Z,12.97
2022-10-26T08:42:43.643Z,11.33
2022-10-26T08:45:38.584Z,9.67
2022-10-26T08:48:35.822Z,10.53
2022-10-26T08:51:27.588Z,10.63
2022-10-26T08:54:22.667Z,9.33
2022-10-26T08:57:19.622Z,7.23
2022-10-26T09:00:25.191Z,7.27
2022-10-26T09:03:17.331Z,6.67
2022-10-26T09:06:31.329Z,8.77
2022-10-26T09:09:23.915Z,7.30
2022-10-26T09:12:23.631Z,6.22
2022-10-26T09:15:22.765Z,7.40
2022-10-26T09:18:27.877Z,7.88
2022-10-26T09:21:50.461Z,5.97
2022-10-26T09:24:51.026Z,6.07
2022-10-26T09:27:43.950Z,7.55
2022-10-26T09:30:31.028Z,6.05
2022-10-26T09:33:23.220Z,7.63
2022-10-26T09:36:20.644Z,7.35
2022-10-26T09:39:22.002Z,7.53
2022-10-26T09:42:21.847Z,6.22
2022-10-26T09:45:29.686Z,6.43
2022-10-26T09:48:38.684Z,4.65
2022-10-26T09:51:27.236Z,4.47
2022-10-26T09:54:19.147Z,5.10
2022-10-26T09:57:08.999Z,6.80
2022-10-26T09:59:56.704Z,4.72
2022-10-26T10:02:47.105Z,5.28
2022-10-26T10:05:53.205Z,3.90
2022-10-26T10:08:40.331Z,6.13
2022-10-26T10:11:45.900Z,5.57
2022-10-26T10:14:39.879Z,5.15
2022-10-26T10:17:27.582Z,6.35
2022-10-26T10:20:19.439Z,5.30
2022-10-26T10:23:06.960Z,3.95
2022-10-26T10:26:01.497Z,5.18
2022-10-26T10:29:03.738Z,4.15
2022-10-26T10:31:56.939Z,6.88
2022-10-26T10:34:44.454Z,5.68
2022-10-26T10:37:31.979Z,8.32
2022-10-26T10:40:24.646Z,7.07
2022-10-26T10:43:14.486Z,5.72
2022-10-26T10:46:01.655Z,4.63
2022-10-26T10:48:55.147Z,5.85
2022-10-26T10:51:44.032Z,7.18
2022-10-26T10:54:34.235Z,4.55
2022-10-26T10:57:45.563Z,4.43
2022-10-26T11:00:37.292Z,5.55
2022-10-26T11:03:26.035Z,4.38
2022-10-26T11:06:20.058Z,5.38
2022-10-26T11:09:15.253Z,7.88
2022-10-26T11:12:08.296Z,5.57
2022-10-26T11:15:02.966Z,4.70
2022-10-26T11:18:16.316Z,5.95
2022-10-26T11:21:16.038Z,5.43
2022-10-26T11:24:10.985Z,3.85
2022-10-26T11:27:17.161Z,4.18
2022-10-26T11:30:15.372Z,3.78
2022-10-26T11:33:23.842Z,3.90
2022-10-26T11:36:21.787Z,4.43
2022-10-26T11:39:16.714Z,7.38
2022-10-26T11:42:26.855Z,4.60
2022-10-26T11:45:22.425Z,4.70
2022-10-26T11:48:28.406Z,3.85
2022-10-26T11:51:42.232Z,7.80
2022-10-26T11:54:40.121Z,6.40
2022-10-26T11:57:28.968Z,6.15
2022-10-26T12:00:18.283Z,4.00
2022-10-26T12:03:14.396Z,3.67
2022-10-26T12:06:01.518Z,4.57
2022-10-26T12:09:04.200Z,4.75
2022-10-26T12:12:18.584Z,6.07
2022-10-26T12:15:15.875Z,4.30
2022-10-26T12:18:11.356Z,4.78
2022-10-26T12:21:03.276Z,5.43
2022-10-26T12:23:59.638Z,4.95
2022-10-26T12:27:06.126Z,3.90
2022-10-26T12:30:24.071Z,4.82
2022-10-26T12:33:29.385Z,6.38
2022-10-26T12:36:54.602Z,3.95
2022-10-26T12:39:42.785Z,7.32
2022-10-26T12:42:30.228Z,4.97
2022-10-26T12:45:21.119Z,6.25
2022-10-26T12:48:38.867Z,5.47
2022-10-26T12:51:26.477Z,2.75
2022-10-26T12:54:34.673Z,5.65
2022-10-26T12:57:33.088Z,3.72
2022-10-26T13:00:26.350Z,2.90
2022-10-26T13:03:19.501Z,3.55
2022-10-26T13:06:25.108Z,5.72
2022-10-26T13:09:22.285Z,5.38
2022-10-26T13:12:09.423Z,6.18
2022-10-26T13:15:04.396Z,5.47
2022-10-26T13:18:18.004Z,3.00
2022-10-26T13:21:14.930Z,5.32
2022-10-26T13:24:02.055Z,3.65
2022-10-26T13:27:10.040Z,6.50
2022-10-26T13:30:03.209Z,3.75
2022-10-26T13:32:54.264Z,4.80
2022-10-26T13:35:43.487Z,2.95
2022-10-26T13:38:34.468Z,3.72
2022-10-26T13:41:36.610Z,6.60
2022-10-26T13:44:39.463Z,5.97
2022-10-26T13:47:29.658Z,2.92
2022-10-26T13:50:20.530Z,4.85
2022-10-26T13:53:13.787Z,6.07
2022-10-26T13:56:06.471Z,6.55
2022-10-26T13:59:06.442Z,5.18
2022-10-26T14:02:27.895Z,2.88
2022-10-26T14:05:17.817Z,4.57
2022-10-26T14:08:04.963Z,6.20
2022-10-26T14:10:59.459Z,6.30
2022-10-26T14:13:50.865Z,5.15
2022-10-26T14:16:46.405Z,5.35
2022-10-26T14:19:36.551Z,4.88
2022-10-26T14:22:27.821Z,3.80
2022-10-26T14:25:26.626Z,4.30
2022-10-26T14:28:32.018Z,6.68
2022-10-26T14:31:28.331Z,3.20
2022-10-26T14:34:15.570Z,4.22
2022-10-26T14:37:04.778Z,5.35
2022-10-26T14:39:52.110Z,4.82
2022-10-26T14:42:42.181Z,3.53
2022-10-26T14:45:48.624Z,4.15
2022-10-26T14:48:36.139Z,5.78
2022-10-26T14:51:31.072Z,4.22
2022-10-26T14:54:24.109Z,3.90
2022-10-26T14:57:30.960Z,4.43
2022-10-26T15:00:25.349Z,6.57
2022-10-26T15:03:17.264Z,4.15
2022-10-26T15:06:44.123Z,2.70
2022-10-26T15:09:44.199Z,4.00
2022-10-26T15:12:36.366Z,6.07
2022-10-26T15:15:23.961Z,6.65
2022-10-26T15:18:24.239Z,3.35
2022-10-26T15:21:26.192Z,5.75
2022-10-26T15:24:39.359Z,7.45
2022-10-26T15:27:26.405Z,4.23
2022-10-26T15:30:22.419Z,5.20
2022-10-26T15:33:21.856Z,5.13
2022-10-26T15:36:17.950Z,3.75
2022-10-26T15:39:04.852Z,5.20
2022-10-26T15:41:53.473Z,6.73
2022-10-26T15:44:40.511Z,6.30
2022-10-26T15:47:32.489Z,5.00
2022-10-26T15:50:24.719Z,4.40
2022-10-26T15:53:18.948Z,3.87
2022-10-26T15:56:14.613Z,3.87
2022-10-26T15:59:01.561Z,4.82
2022-10-26T16:01:48.626Z,6.00
2022-10-26T16:04:35.651Z,4.40
2022-10-26T16:07:25.989Z,4.33
2022-10-26T16:10:18.447Z,5.83
2022-10-26T16:13:06.132Z,6.40
2022-10-26T16:15:53.078Z,7.33
2022-10-26T16:18:40.203Z,7.80
2022-10-26T16:21:27.156Z,5.57
2022-10-26T16:24:14.383Z,6.00
2022-10-26T16:27:01.532Z,6.40
2022-10-26T16:29:48.457Z,4.33
2022-10-26T16:32:35.396Z,4.37
2022-10-26T16:35:22.401Z,7.87
2022-10-26T16:38:09.789Z,9.73
2022-10-26T16:41:14.048Z,10.23
2022-10-26T16:44:01.014Z,11.63
2022-10-26T16:46:47.925Z,5.47
2022-10-26T16:49:34.886Z,3.67
2022-10-26T16:52:21.840Z,5.73
2022-10-26T16:55:09.263Z,5.60
2022-10-26T16:57:56.307Z,6.67
2022-10-26T17:00:43.260Z,5.87
2022-10-26T17:03:30.175Z,6.97
2022-10-26T17:06:18.380Z,5.63
2022-10-26T17:09:05.318Z,5.17
2022-10-26T17:11:54.210Z,4.50
2022-10-26T17:14:42.387Z,5.33
2022-10-26T17:17:29.307Z,4.60
2022-10-26T17:20:17.022Z,5.83
2022-10-26T17:23:04.986Z,4.13
2022-10-26T17:25:52.036Z,5.03
2022-10-26T17:28:39.291Z,5.53
2022-10-26T17:31:26.361Z,5.90
2022-10-26T17:34:13.287Z,4.10
2022-10-26T17:37:00.251Z,6.60
2022-10-26T17:39:47.177Z,4.77
2022-10-26T17:42:34.097Z,4.93
2022-10-26T17:45:21.042Z,5.97
2022-10-26T17:48:08.013Z,4.33
2022-10-26T17:50:55.211Z,4.70
2022-10-26T17:53:42.709Z,4.27
2022-10-26T17:56:32.113Z,6.70
2022-10-26T17:59:19.891Z,5.47
2022-10-26T18:02:06.925Z,5.10
2022-10-26T18:04:53.896Z,9.30
2022-10-26T18:07:41.214Z,6.97
2022-10-26T18:10:37.531Z,7.10
2022-10-26T18:13:27.444Z,6.23
2022-10-26T18:16:17.384Z,6.80
2022-10-26T18:19:04.882Z,13.30
2022-10-26T18:21:51.808Z,5.10
2022-10-26T18:24:38.749Z,8.73
2022-10-26T18:27:25.901Z,6.30
2022-10-26T18:30:13.116Z,5.67
2022-10-26T18:33:00.027Z,5.43
2022-10-26T18:35:46.979Z,4.83
2022-10-26T18:38:34.463Z,5.90
2022-10-26T18:41:22.628Z,5.87
2022-10-26T18:44:09.813Z,5.20
2022-10-26T18:46:56.732Z,7.50
2022-10-26T18:49:43.801Z,7.00
2022-10-26T18:52:31.326Z,8.23
2022-10-26T18:55:18.522Z,7.63
2022-10-26T18:58:05.480Z,7.07
2022-10-26T19:00:54.511Z,6.87
2022-10-26T19:03:42.947Z,8.90
2022-10-26T19:06:32.217Z,12.67
2022-10-26T19:09:19.626Z,24.57
2022-10-26T19:12:06.928Z,34.37
2022-10-26T19:14:53.837Z,23.70
2022-10-26T19:17:40.768Z,31.10
2022-10-26T19:20:28.047Z,14.00
2022-10-26T19:23:14.974Z,41.37
2022-10-26T19:26:03.044Z,26.00
2022-10-26T19:28:57.984Z,24.60
2022-10-26T19:31:46.432Z,16.73
2022-10-26T19:34:33.344Z,14.87
2022-10-26T19:37:21.863Z,9.07
2022-10-26T19:40:10.313Z,9.83
2022-10-26T19:42:57.249Z,7.13
2022-10-26T19:45:44.196Z,7.43
2022-10-26T19:48:31.357Z,8.83
2022-10-26T19:51:18.630Z,12.27
2022-10-26T19:54:07.151Z,8.47
2022-10-26T19:56:54.182Z,6.50
2022-10-26T19:59:41.155Z,6.10
2022-10-26T20:02:28.103Z,8.40
2022-10-26T20:05:15.034Z,7.13
2022-10-26T20:08:02.066Z,7.00
2022-10-26T20:10:49.121Z,6.67
2022-10-26T20:13:37.505Z,7.33
2022-10-26T20:16:25.101Z,8.30
2022-10-26T20:19:12.070Z,6.37
2022-10-26T20:21:59.044Z,4.03
2022-10-26T20:24:45.920Z,8.27
2022-10-26T20:27:32.915Z,9.57
2022-10-26T20:30:19.863Z,8.07
2022-10-26T20:33:06.818Z,5.10
2022-10-26T20:36:00.478Z,6.57
2022-10-26T20:38:47.714Z,4.67
2022-10-26T20:41:41.346Z,7.67
2022-10-26T20:44:33.158Z,8.03
2022-10-26T20:47:20.388Z,9.30
2022-10-26T20:50:10.032Z,6.23
2022-10-26T20:53:10.042Z,5.10
2022-10-26T20:56:02.828Z,10.43
2022-10-26T20:58:56.016Z,7.03
2022-10-26T21:01:42.982Z,10.93
2022-10-26T21:04:30.089Z,7.57
2022-10-26T21:07:17.000Z,8.17
2022-10-26T21:10:04.217Z,9.23
2022-10-26T21:12:52.015Z,6.17
2022-10-26T21:15:39.187Z,6.40
2022-10-26T21:18:26.088Z,6.80
2022-10-26T21:21:13.035Z,5.30
2022-10-26T21:24:00.032Z,8.47
2022-10-26T21:26:46.948Z,7.30
2022-10-26T21:29:33.859Z,5.27
2022-10-26T21:32:20.763Z,7.33
2022-10-26T21:35:07.971Z,8.20
2022-10-26T21:37:55.909Z,9.27
2022-10-26T21:40:42.835Z,6.67
2022-10-26T21:43:29.945Z,8.87
2022-10-26T21:46:19.370Z,6.90
2022-10-26T21:49:06.460Z,9.67
2022-10-26T21:51:53.433Z,8.10
2022-10-26T21:54:40.351Z,7.17
2022-10-26T21:57:27.316Z,8.83
2022-10-26T22:00:14.896Z,11.13
2022-10-26T22:03:01.860Z,11.10
2022-10-26T22:05:52.460Z,9.87
2022-10-26T22:08:39.652Z,7.80
2022-10-26T22:11:26.802Z,10.37
2022-10-26T22:14:16.793Z,8.30
2022-10-26T22:17:03.713Z,6.30
2022-10-26T22:19:50.620Z,7.00
2022-10-26T22:22:37.776Z,11.37
2022-10-26T22:25:24.791Z,7.40
2022-10-26T22:28:11.691Z,7.77
2022-10-26T22:31:02.853Z,6.73
2022-10-26T22:33:54.125Z,7.00
2022-10-26T22:36:41.443Z,7.93
2022-10-26T22:39:28.327Z,13.57
2022-10-26T22:42:15.269Z,8.43
2022-10-26T22:45:02.183Z,9.47
2022-10-26T22:47:49.109Z,9.83
2022-10-26T22:50:38.007Z,7.30
2022-10-26T22:53:25.315Z,8.47
2022-10-26T22:56:14.048Z,7.57
2022-10-26T22:59:01.333Z,10.20
2022-10-26T23:01:48.439Z,6.80
2022-10-26T23:04:35.506Z,8.73
2022-10-26T23:07:25.910Z,9.73
2022-10-26T23:10:12.819Z,9.83
2022-10-26T23:12:59.772Z,9.40
2022-10-26T23:15:46.703Z,7.37
2022-10-26T23:18:34.556Z,7.50
2022-10-26T23:21:23.890Z,8.57
2022-10-26T23:24:10.885Z,10.40
2022-10-26T23:26:57.809Z,7.47
2022-10-26T23:32:36.541Z,9.73
2022-10-26T23:35:23.476Z,9.63
2022-10-26T23:38:10.406Z,7.90
2022-10-26T23:40:59.073Z,9.47
2022-10-26T23:43:46.038Z,7.87
2022-10-26T23:46:32.967Z,8.23
2022-10-26T23:49:19.883Z,10.07
2022-10-26T23:52:06.840Z,12.50
2022-10-26T23:54:53.748Z,11.33
2022-10-26T23:57:40.680Z,12.63
